sensor_id;sensor_type;location;lat;lon;timestamp;P1;durP1;ratioP1;P2;durP2;ratioP2
21848;SDS011;11089;49.852;19.700;2022-12-16T00:00:11;115.75;;;39.63;;
21848;SDS011;11089;49.852;19.700;2022-12-16T00:03:14;123.47;;;39.05;;
21848;SDS011;11089;49.852;19.700;2022-12-16T00:06:15;120.88;;;40.95;;
21848;SDS011;11089;49.852;19.700;2022-12-16T00:09:16;124.55;;;41.60;;
21848;SDS011;11089;49.852;19.700;2022-12-16T00:12:17;118.55;;;40.95;;
21848;SDS011;11089;49.852;19.700;2022-12-16T00:15:18;113.97;;;39.30;;
21848;SDS011;11089;49.852;19.700;2022-12-16T00:18:19;121.13;;;39.00;;
21848;SDS011;11089;49.852;19.700;2022-12-16T00:21:20;119.28;;;39.72;;
21848;SDS011;11089;49.852;19.700;2022-12-16T00:24:21;111.82;;;38.30;;
21848;SDS011;11089;49.852;19.700;2022-12-16T00:27:22;121.05;;;39.53;;
21848;SDS011;11089;49.852;19.700;2022-12-16T00:30:23;112.32;;;38.28;;
21848;SDS011;11089;49.852;19.700;2022-12-16T00:33:24;117.82;;;38.47;;
21848;SDS011;11089;49.852;19.700;2022-12-16T00:36:26;122.32;;;39.58;;
21848;SDS011;11089;49.852;19.700;2022-12-16T00:39:28;115.50;;;38.13;;
21848;SDS011;11089;49.852;19.700;2022-12-16T00:42:29;125.10;;;40.25;;
21848;SDS011;11089;49.852;19.700;2022-12-16T00:45:30;111.50;;;38.25;;
21848;SDS011;11089;49.852;19.700;2022-12-16T00:48:31;120.88;;;39.50;;
21848;SDS011;11089;49.852;19.700;2022-12-16T00:51:31;125.82;;;39.45;;
21848;SDS011;11089;49.852;19.700;2022-12-16T00:54:32;119.90;;;40.50;;
21848;SDS011;11089;49.852;19.700;2022-12-16T00:57:33;119.53;;;40.22;;
21848;SDS011;11089;49.852;19.700;2022-12-16T01:00:34;122.45;;;40.38;;
21848;SDS011;11089;49.852;19.700;2022-12-16T01:03:35;116.47;;;41.03;;
21848;SDS011;11089;49.852;19.700;2022-12-16T01:06:36;124.22;;;39.60;;
21848;SDS011;11089;49.852;19.700;2022-12-16T01:09:37;126.65;;;41.00;;
21848;SDS011;11089;49.852;19.700;2022-12-16T01:12:38;127.18;;;43.25;;
21848;SDS011;11089;49.852;19.700;2022-12-16T01:15:39;124.75;;;40.75;;
21848;SDS011;11089;49.852;19.700;2022-12-16T01:18:40;122.53;;;40.35;;
21848;SDS011;11089;49.852;19.700;2022-12-16T01:21:40;136.82;;;41.28;;
21848;SDS011;11089;49.852;19.700;2022-12-16T01:24:42;125.72;;;39.17;;
21848;SDS011;11089;49.852;19.700;2022-12-16T01:27:44;128.63;;;39.58;;
21848;SDS011;11089;49.852;19.700;2022-12-16T01:30:44;126.97;;;40.40;;
21848;SDS011;11089;49.852;19.700;2022-12-16T01:33:45;119.32;;;38.58;;
21848;SDS011;11089;49.852;19.700;2022-12-16T01:36:47;123.10;;;39.75;;
21848;SDS011;11089;49.852;19.700;2022-12-16T01:39:48;128.18;;;40.33;;
21848;SDS011;11089;49.852;19.700;2022-12-16T01:42:48;119.07;;;39.22;;
21848;SDS011;11089;49.852;19.700;2022-12-16T01:45:50;130.60;;;43.10;;
21848;SDS011;11089;49.852;19.700;2022-12-16T01:49:14;125.45;;;40.33;;
21848;SDS011;11089;49.852;19.700;2022-12-16T01:52:29;124.38;;;39.88;;
21848;SDS011;11089;49.852;19.700;2022-12-16T01:55:37;128.80;;;41.40;;
21848;SDS011;11089;49.852;19.700;2022-12-16T01:58:43;130.88;;;41.75;;
21848;SDS011;11089;49.852;19.700;2022-12-16T02:01:46;135.73;;;45.35;;
21848;SDS011;11089;49.852;19.700;2022-12-16T02:04:47;126.30;;;40.72;;
21848;SDS011;11089;49.852;19.700;2022-12-16T02:14:28;124.75;;;40.83;;
21848;SDS011;11089;49.852;19.700;2022-12-16T02:17:43;131.65;;;41.25;;
21848;SDS011;11089;49.852;19.700;2022-12-16T02:31:25;124.85;;;39.90;;
21848;SDS011;11089;49.852;19.700;2022-12-16T02:34:29;125.32;;;39.35;;
21848;SDS011;11089;49.852;19.700;2022-12-16T02:37:40;128.40;;;40.28;;
21848;SDS011;11089;49.852;19.700;2022-12-16T02:41:00;126.90;;;39.92;;
21848;SDS011;11089;49.852;19.700;2022-12-16T02:44:05;127.78;;;39.95;;
21848;SDS011;11089;49.852;19.700;2022-12-16T02:47:07;124.75;;;39.25;;
21848;SDS011;11089;49.852;19.700;2022-12-16T02:53:34;107.88;;;37.70;;
21848;SDS011;11089;49.852;19.700;2022-12-16T03:03:17;112.70;;;37.63;;
21848;SDS011;11089;49.852;19.700;2022-12-16T03:06:24;118.70;;;38.33;;
21848;SDS011;11089;49.852;19.700;2022-12-16T03:09:28;120.20;;;37.78;;
21848;SDS011;11089;49.852;19.700;2022-12-16T03:12:34;113.40;;;35.67;;
21848;SDS011;11089;49.852;19.700;2022-12-16T03:15:37;114.15;;;37.35;;
21848;SDS011;11089;49.852;19.700;2022-12-16T03:18:41;115.10;;;37.20;;
21848;SDS011;11089;49.852;19.700;2022-12-16T03:21:51;116.32;;;38.47;;
21848;SDS011;11089;49.852;19.700;2022-12-16T03:24:58;115.50;;;37.90;;
21848;SDS011;11089;49.852;19.700;2022-12-16T03:31:39;112.47;;;36.42;;
21848;SDS011;11089;49.852;19.700;2022-12-16T03:38:19;117.60;;;36.67;;
21848;SDS011;11089;49.852;19.700;2022-12-16T03:41:21;115.53;;;36.97;;
21848;SDS011;11089;49.852;19.700;2022-12-16T03:44:23;111.45;;;37.10;;
21848;SDS011;11089;49.852;19.700;2022-12-16T03:47:25;112.07;;;36.83;;
21848;SDS011;11089;49.852;19.700;2022-12-16T03:50:28;118.50;;;37.17;;
21848;SDS011;11089;49.852;19.700;2022-12-16T03:53:31;109.78;;;37.47;;
21848;SDS011;11089;49.852;19.700;2022-12-16T03:56:32;114.65;;;36.97;;
21848;SDS011;11089;49.852;19.700;2022-12-16T03:59:33;110.97;;;38.45;;
21848;SDS011;11089;49.852;19.700;2022-12-16T04:02:34;107.85;;;37.38;;
21848;SDS011;11089;49.852;19.700;2022-12-16T04:05:35;109.57;;;35.08;;
21848;SDS011;11089;49.852;19.700;2022-12-16T04:08:36;106.80;;;35.95;;
21848;SDS011;11089;49.852;19.700;2022-12-16T04:11:37;107.93;;;36.22;;
21848;SDS011;11089;49.852;19.700;2022-12-16T04:14:52;107.47;;;35.85;;
21848;SDS011;11089;49.852;19.700;2022-12-16T04:18:07;108.47;;;34.83;;
21848;SDS011;11089;49.852;19.700;2022-12-16T04:21:31;110.70;;;36.03;;
21848;SDS011;11089;49.852;19.700;2022-12-16T04:24:46;99.80;;;33.22;;
21848;SDS011;11089;49.852;19.700;2022-12-16T04:27:47;96.93;;;34.33;;
21848;SDS011;11089;49.852;19.700;2022-12-16T04:30:48;99.65;;;33.75;;
21848;SDS011;11089;49.852;19.700;2022-12-16T04:33:49;92.25;;;33.13;;
21848;SDS011;11089;49.852;19.700;2022-12-16T04:37:03;99.38;;;33.55;;
21848;SDS011;11089;49.852;19.700;2022-12-16T04:40:16;100.40;;;32.53;;
21848;SDS011;11089;49.852;19.700;2022-12-16T04:43:31;100.10;;;32.33;;
21848;SDS011;11089;49.852;19.700;2022-12-16T04:46:46;95.75;;;31.95;;
21848;SDS011;11089;49.852;19.700;2022-12-16T04:50:02;89.13;;;32.88;;
21848;SDS011;11089;49.852;19.700;2022-12-16T04:53:17;91.75;;;30.00;;
21848;SDS011;11089;49.852;19.700;2022-12-16T04:56:32;87.07;;;32.05;;
21848;SDS011;11089;49.852;19.700;2022-12-16T04:59:47;92.65;;;32.88;;
21848;SDS011;11089;49.852;19.700;2022-12-16T05:03:02;94.72;;;32.28;;
21848;SDS011;11089;49.852;19.700;2022-12-16T05:06:15;96.53;;;33.92;;
21848;SDS011;11089;49.852;19.700;2022-12-16T05:09:29;88.55;;;31.52;;
21848;SDS011;11089;49.852;19.700;2022-12-16T05:12:44;92.45;;;32.28;;
21848;SDS011;11089;49.852;19.700;2022-12-16T05:15:59;95.03;;;32.85;;
21848;SDS011;11089;49.852;19.700;2022-12-16T05:19:14;89.47;;;31.13;;
21848;SDS011;11089;49.852;19.700;2022-12-16T05:22:29;84.43;;;29.35;;
21848;SDS011;11089;49.852;19.700;2022-12-16T05:25:42;80.72;;;31.45;;
21848;SDS011;11089;49.852;19.700;2022-12-16T05:28:57;83.57;;;29.77;;
21848;SDS011;11089;49.852;19.700;2022-12-16T05:32:13;88.97;;;30.77;;
21848;SDS011;11089;49.852;19.700;2022-12-16T05:35:28;80.18;;;30.73;;
21848;SDS011;11089;49.852;19.700;2022-12-16T05:38:43;79.32;;;29.95;;
21848;SDS011;11089;49.852;19.700;2022-12-16T05:41:58;81.00;;;29.98;;
21848;SDS011;11089;49.852;19.700;2022-12-16T05:45:13;81.57;;;31.30;;
21848;SDS011;11089;49.852;19.700;2022-12-16T05:48:28;76.28;;;28.98;;
21848;SDS011;11089;49.852;19.700;2022-12-16T05:51:43;79.68;;;30.42;;
21848;SDS011;11089;49.852;19.700;2022-12-16T05:54:58;78.75;;;29.30;;
21848;SDS011;11089;49.852;19.700;2022-12-16T05:58:12;76.78;;;29.27;;
21848;SDS011;11089;49.852;19.700;2022-12-16T06:01:27;78.60;;;29.75;;
21848;SDS011;11089;49.852;19.700;2022-12-16T06:04:42;79.30;;;27.38;;
21848;SDS011;11089;49.852;19.700;2022-12-16T06:07:57;78.65;;;27.95;;
21848;SDS011;11089;49.852;19.700;2022-12-16T06:11:12;76.72;;;29.50;;
21848;SDS011;11089;49.852;19.700;2022-12-16T06:14:26;73.78;;;28.08;;
21848;SDS011;11089;49.852;19.700;2022-12-16T06:17:42;69.50;;;27.50;;
21848;SDS011;11089;49.852;19.700;2022-12-16T06:21:03;68.93;;;25.95;;
21848;SDS011;11089;49.852;19.700;2022-12-16T06:24:18;68.68;;;26.65;;
21848;SDS011;11089;49.852;19.700;2022-12-16T06:27:33;61.08;;;24.55;;
21848;SDS011;11089;49.852;19.700;2022-12-16T06:30:48;64.85;;;26.08;;
21848;SDS011;11089;49.852;19.700;2022-12-16T06:34:03;61.92;;;24.55;;
21848;SDS011;11089;49.852;19.700;2022-12-16T06:37:18;64.25;;;24.88;;
21848;SDS011;11089;49.852;19.700;2022-12-16T06:40:33;62.95;;;24.77;;
21848;SDS011;11089;49.852;19.700;2022-12-16T06:43:47;62.55;;;23.92;;
21848;SDS011;11089;49.852;19.700;2022-12-16T06:47:02;65.78;;;24.67;;
21848;SDS011;11089;49.852;19.700;2022-12-16T06:50:16;57.88;;;23.35;;
21848;SDS011;11089;49.852;19.700;2022-12-16T06:53:31;55.53;;;22.67;;
21848;SDS011;11089;49.852;19.700;2022-12-16T06:56:46;58.47;;;23.08;;
21848;SDS011;11089;49.852;19.700;2022-12-16T07:00:01;56.45;;;23.13;;
21848;SDS011;11089;49.852;19.700;2022-12-16T07:03:16;56.20;;;23.08;;
21848;SDS011;11089;49.852;19.700;2022-12-16T07:06:31;56.22;;;24.40;;
21848;SDS011;11089;49.852;19.700;2022-12-16T07:09:46;59.85;;;23.65;;
21848;SDS011;11089;49.852;19.700;2022-12-16T07:13:00;53.38;;;23.00;;
21848;SDS011;11089;49.852;19.700;2022-12-16T07:16:15;48.53;;;21.15;;
21848;SDS011;11089;49.852;19.700;2022-12-16T07:19:30;47.25;;;19.23;;
21848;SDS011;11089;49.852;19.700;2022-12-16T07:22:45;46.22;;;19.73;;
21848;SDS011;11089;49.852;19.700;2022-12-16T07:26:00;38.90;;;17.55;;
21848;SDS011;11089;49.852;19.700;2022-12-16T07:29:14;43.75;;;16.95;;
21848;SDS011;11089;49.852;19.700;2022-12-16T07:32:27;39.30;;;17.48;;
21848;SDS011;11089;49.852;19.700;2022-12-16T07:35:42;35.72;;;16.08;;
21848;SDS011;11089;49.852;19.700;2022-12-16T07:38:57;38.63;;;16.27;;
21848;SDS011;11089;49.852;19.700;2022-12-16T07:42:12;38.28;;;16.02;;
21848;SDS011;11089;49.852;19.700;2022-12-16T07:45:27;34.58;;;15.63;;
21848;SDS011;11089;49.852;19.700;2022-12-16T07:48:40;36.30;;;15.35;;
21848;SDS011;11089;49.852;19.700;2022-12-16T07:51:55;34.33;;;16.80;;
21848;SDS011;11089;49.852;19.700;2022-12-16T07:55:10;29.13;;;14.50;;
21848;SDS011;11089;49.852;19.700;2022-12-16T07:58:25;27.58;;;13.57;;
21848;SDS011;11089;49.852;19.700;2022-12-16T08:01:41;30.80;;;13.73;;
21848;SDS011;11089;49.852;19.700;2022-12-16T08:04:55;27.45;;;13.20;;
21848;SDS011;11089;49.852;19.700;2022-12-16T08:08:08;29.35;;;13.63;;
21848;SDS011;11089;49.852;19.700;2022-12-16T08:11:29;25.33;;;12.65;;
21848;SDS011;11089;49.852;19.700;2022-12-16T08:14:44;23.20;;;11.57;;
21848;SDS011;11089;49.852;19.700;2022-12-16T08:17:59;24.67;;;12.55;;
21848;SDS011;11089;49.852;19.700;2022-12-16T08:21:14;24.10;;;11.73;;
21848;SDS011;11089;49.852;19.700;2022-12-16T08:24:29;26.23;;;12.35;;
21848;SDS011;11089;49.852;19.700;2022-12-16T08:27:44;23.48;;;12.40;;
21848;SDS011;11089;49.852;19.700;2022-12-16T08:30:57;27.58;;;12.70;;
21848;SDS011;11089;49.852;19.700;2022-12-16T08:34:12;24.88;;;12.23;;
21848;SDS011;11089;49.852;19.700;2022-12-16T08:37:27;24.30;;;12.23;;
21848;SDS011;11089;49.852;19.700;2022-12-16T08:40:42;24.50;;;11.48;;
21848;SDS011;11089;49.852;19.700;2022-12-16T08:43:56;25.67;;;11.93;;
21848;SDS011;11089;49.852;19.700;2022-12-16T08:47:11;27.15;;;12.60;;
21848;SDS011;11089;49.852;19.700;2022-12-16T08:50:41;23.55;;;11.32;;
21848;SDS011;11089;49.852;19.700;2022-12-16T08:53:56;27.40;;;12.77;;
21848;SDS011;11089;49.852;19.700;2022-12-16T08:57:11;24.10;;;11.10;;
21848;SDS011;11089;49.852;19.700;2022-12-16T09:00:26;24.45;;;12.38;;
21848;SDS011;11089;49.852;19.700;2022-12-16T09:03:41;24.35;;;12.20;;
21848;SDS011;11089;49.852;19.700;2022-12-16T09:06:55;26.48;;;13.20;;
21848;SDS011;11089;49.852;19.700;2022-12-16T09:10:09;23.10;;;12.43;;
21848;SDS011;11089;49.852;19.700;2022-12-16T09:13:22;29.45;;;13.10;;
21848;SDS011;11089;49.852;19.700;2022-12-16T09:16:37;26.92;;;12.70;;
21848;SDS011;11089;49.852;19.700;2022-12-16T09:19:52;25.10;;;12.90;;
21848;SDS011;11089;49.852;19.700;2022-12-16T09:23:07;27.20;;;13.80;;
21848;SDS011;11089;49.852;19.700;2022-12-16T09:26:22;29.08;;;14.05;;
21848;SDS011;11089;49.852;19.700;2022-12-16T09:29:35;24.42;;;13.00;;
21848;SDS011;11089;49.852;19.700;2022-12-16T09:32:49;24.75;;;12.50;;
21848;SDS011;11089;49.852;19.700;2022-12-16T09:36:04;24.50;;;12.45;;
21848;SDS011;11089;49.852;19.700;2022-12-16T09:39:20;26.23;;;12.57;;
21848;SDS011;11089;49.852;19.700;2022-12-16T09:42:56;26.58;;;12.65;;
21848;SDS011;11089;49.852;19.700;2022-12-16T09:53:40;44.33;;;21.45;;
21848;SDS011;11089;49.852;19.700;2022-12-16T09:56:58;42.97;;;20.80;;
21848;SDS011;11089;49.852;19.700;2022-12-16T10:00:18;45.47;;;20.98;;
21848;SDS011;11089;49.852;19.700;2022-12-16T10:03:37;42.42;;;20.73;;
21848;SDS011;11089;49.852;19.700;2022-12-16T10:06:54;54.53;;;23.77;;
21848;SDS011;11089;49.852;19.700;2022-12-16T10:17:23;46.88;;;22.33;;
21848;SDS011;11089;49.852;19.700;2022-12-16T10:20:43;43.10;;;20.75;;
21848;SDS011;11089;49.852;19.700;2022-12-16T10:24:13;45.10;;;21.00;;
21848;SDS011;11089;49.852;19.700;2022-12-16T10:27:48;49.72;;;21.15;;
21848;SDS011;11089;49.852;19.700;2022-12-16T10:31:11;49.88;;;21.48;;
21848;SDS011;11089;49.852;19.700;2022-12-16T10:34:29;50.03;;;23.90;;
21848;SDS011;11089;49.852;19.700;2022-12-16T10:37:46;47.22;;;21.85;;
21848;SDS011;11089;49.852;19.700;2022-12-16T10:41:00;46.72;;;20.95;;
21848;SDS011;11089;49.852;19.700;2022-12-16T10:44:28;36.95;;;18.73;;
21848;SDS011;11089;49.852;19.700;2022-12-16T10:47:50;33.42;;;17.70;;
21848;SDS011;11089;49.852;19.700;2022-12-16T10:51:18;38.08;;;17.58;;
21848;SDS011;11089;49.852;19.700;2022-12-16T10:54:41;28.40;;;14.82;;
21848;SDS011;11089;49.852;19.700;2022-12-16T10:58:49;30.98;;;15.23;;
21848;SDS011;11089;49.852;19.700;2022-12-16T11:02:00;26.52;;;13.35;;
21848;SDS011;11089;49.852;19.700;2022-12-16T11:05:31;28.23;;;14.07;;
21848;SDS011;11089;49.852;19.700;2022-12-16T11:08:48;24.42;;;14.13;;
21848;SDS011;11089;49.852;19.700;2022-12-16T11:15:40;41.78;;;20.02;;
21848;SDS011;11089;49.852;19.700;2022-12-16T11:18:55;49.05;;;23.50;;
21848;SDS011;11089;49.852;19.700;2022-12-16T11:25:25;62.10;;;25.00;;
21848;SDS011;11089;49.852;19.700;2022-12-16T11:28:39;55.58;;;25.17;;
21848;SDS011;11089;49.852;19.700;2022-12-16T11:31:58;65.30;;;29.05;;
21848;SDS011;11089;49.852;19.700;2022-12-16T11:35:30;62.00;;;27.17;;
21848;SDS011;11089;49.852;19.700;2022-12-16T11:38:47;50.65;;;23.40;;
21848;SDS011;11089;49.852;19.700;2022-12-16T11:42:05;46.65;;;22.38;;
21848;SDS011;11089;49.852;19.700;2022-12-16T11:45:33;54.90;;;24.88;;
21848;SDS011;11089;49.852;19.700;2022-12-16T11:48:49;57.83;;;24.65;;
21848;SDS011;11089;49.852;19.700;2022-12-16T11:52:10;46.58;;;22.15;;
21848;SDS011;11089;49.852;19.700;2022-12-16T11:55:28;40.55;;;20.33;;
21848;SDS011;11089;49.852;19.700;2022-12-16T11:58:47;39.58;;;19.05;;
21848;SDS011;11089;49.852;19.700;2022-12-16T12:02:28;36.33;;;18.38;;
21848;SDS011;11089;49.852;19.700;2022-12-16T12:09:22;48.85;;;21.67;;
21848;SDS011;11089;49.852;19.700;2022-12-16T12:17:06;44.08;;;21.05;;
21848;SDS011;11089;49.852;19.700;2022-12-16T12:23:57;45.80;;;21.58;;
21848;SDS011;11089;49.852;19.700;2022-12-16T12:27:29;46.95;;;21.40;;
21848;SDS011;11089;49.852;19.700;2022-12-16T12:34:34;46.22;;;21.90;;
21848;SDS011;11089;49.852;19.700;2022-12-16T12:38:08;46.55;;;22.08;;
21848;SDS011;11089;49.852;19.700;2022-12-16T12:42:15;45.42;;;20.38;;
21848;SDS011;11089;49.852;19.700;2022-12-16T12:49:04;48.00;;;22.17;;
21848;SDS011;11089;49.852;19.700;2022-12-16T12:52:45;51.05;;;22.35;;
21848;SDS011;11089;49.852;19.700;2022-12-16T12:56:28;58.35;;;24.45;;
21848;SDS011;11089;49.852;19.700;2022-12-16T13:00:03;52.88;;;25.63;;
21848;SDS011;11089;49.852;19.700;2022-12-16T13:07:06;48.65;;;21.00;;
21848;SDS011;11089;49.852;19.700;2022-12-16T13:13:38;47.95;;;21.92;;
21848;SDS011;11089;49.852;19.700;2022-12-16T13:23:46;46.90;;;20.80;;
21848;SDS011;11089;49.852;19.700;2022-12-16T13:27:01;48.50;;;22.63;;
21848;SDS011;11089;49.852;19.700;2022-12-16T13:30:20;51.00;;;22.67;;
21848;SDS011;11089;49.852;19.700;2022-12-16T13:33:36;56.95;;;24.02;;
21848;SDS011;11089;49.852;19.700;2022-12-16T13:36:54;56.83;;;24.70;;
21848;SDS011;11089;49.852;19.700;2022-12-16T13:40:13;55.80;;;24.83;;
21848;SDS011;11089;49.852;19.700;2022-12-16T13:43:55;63.28;;;28.85;;
21848;SDS011;11089;49.852;19.700;2022-12-16T13:50:55;83.28;;;32.70;;
21848;SDS011;11089;49.852;19.700;2022-12-16T13:54:10;83.15;;;33.25;;
21848;SDS011;11089;49.852;19.700;2022-12-16T13:57:38;88.70;;;35.15;;
21848;SDS011;11089;49.852;19.700;2022-12-16T14:00:58;92.35;;;37.25;;
21848;SDS011;11089;49.852;19.700;2022-12-16T14:04:19;92.63;;;36.38;;
21848;SDS011;11089;49.852;19.700;2022-12-16T14:07:39;106.32;;;38.13;;
21848;SDS011;11089;49.852;19.700;2022-12-16T14:10:56;100.53;;;39.85;;
21848;SDS011;11089;49.852;19.700;2022-12-16T14:14:50;97.28;;;37.58;;
21848;SDS011;11089;49.852;19.700;2022-12-16T14:18:03;100.57;;;39.90;;
21848;SDS011;11089;49.852;19.700;2022-12-16T14:21:31;119.50;;;47.40;;
21848;SDS011;11089;49.852;19.700;2022-12-16T14:24:51;95.22;;;40.25;;
21848;SDS011;11089;49.852;19.700;2022-12-16T14:28:28;89.18;;;36.67;;
21848;SDS011;11089;49.852;19.700;2022-12-16T14:31:43;95.10;;;39.20;;
21848;SDS011;11089;49.852;19.700;2022-12-16T14:35:01;97.90;;;38.08;;
21848;SDS011;11089;49.852;19.700;2022-12-16T14:38:23;98.32;;;37.08;;
21848;SDS011;11089;49.852;19.700;2022-12-16T14:41:40;92.43;;;35.97;;
21848;SDS011;11089;49.852;19.700;2022-12-16T14:44:53;108.03;;;39.30;;
21848;SDS011;11089;49.852;19.700;2022-12-16T14:48:18;105.28;;;38.95;;
21848;SDS011;11089;49.852;19.700;2022-12-16T14:51:44;102.78;;;38.95;;
21848;SDS011;11089;49.852;19.700;2022-12-16T14:55:03;127.72;;;44.53;;
21848;SDS011;11089;49.852;19.700;2022-12-16T14:58:26;108.18;;;41.97;;
21848;SDS011;11089;49.852;19.700;2022-12-16T15:01:42;108.10;;;40.88;;
21848;SDS011;11089;49.852;19.700;2022-12-16T15:04:57;112.53;;;42.15;;
21848;SDS011;11089;49.852;19.700;2022-12-16T15:08:13;109.28;;;41.10;;
21848;SDS011;11089;49.852;19.700;2022-12-16T15:11:28;112.50;;;41.83;;
21848;SDS011;11089;49.852;19.700;2022-12-16T15:14:43;104.90;;;41.60;;
21848;SDS011;11089;49.852;19.700;2022-12-16T15:17:58;103.38;;;40.53;;
21848;SDS011;11089;49.852;19.700;2022-12-16T15:21:14;110.82;;;41.38;;
21848;SDS011;11089;49.852;19.700;2022-12-16T15:24:31;108.03;;;39.67;;
21848;SDS011;11089;49.852;19.700;2022-12-16T15:27:53;101.30;;;38.90;;
21848;SDS011;11089;49.852;19.700;2022-12-16T15:31:14;107.35;;;42.13;;
21848;SDS011;11089;49.852;19.700;2022-12-16T15:34:38;111.18;;;41.42;;
21848;SDS011;11089;49.852;19.700;2022-12-16T15:38:00;129.82;;;44.80;;
21848;SDS011;11089;49.852;19.700;2022-12-16T15:41:37;113.70;;;42.65;;
21848;SDS011;11089;49.852;19.700;2022-12-16T15:44:50;113.93;;;45.17;;
21848;SDS011;11089;49.852;19.700;2022-12-16T15:48:12;125.65;;;45.58;;
21848;SDS011;11089;49.852;19.700;2022-12-16T15:51:45;139.90;;;49.15;;
21848;SDS011;11089;49.852;19.700;2022-12-16T15:55:01;157.80;;;56.42;;
21848;SDS011;11089;49.852;19.700;2022-12-16T16:01:40;125.68;;;45.22;;
21848;SDS011;11089;49.852;19.700;2022-12-16T16:04:54;119.47;;;45.05;;
21848;SDS011;11089;49.852;19.700;2022-12-16T16:08:09;127.45;;;48.00;;
21848;SDS011;11089;49.852;19.700;2022-12-16T16:11:24;158.00;;;55.00;;
21848;SDS011;11089;49.852;19.700;2022-12-16T16:14:39;171.50;;;57.70;;
21848;SDS011;11089;49.852;19.700;2022-12-16T16:17:55;139.85;;;49.22;;
21848;SDS011;11089;49.852;19.700;2022-12-16T16:21:11;127.70;;;47.22;;
21848;SDS011;11089;49.852;19.700;2022-12-16T16:24:26;116.97;;;42.95;;
21848;SDS011;11089;49.852;19.700;2022-12-16T16:27:41;133.45;;;46.60;;
21848;SDS011;11089;49.852;19.700;2022-12-16T16:30:56;134.00;;;48.03;;
21848;SDS011;11089;49.852;19.700;2022-12-16T16:34:11;137.00;;;46.20;;
21848;SDS011;11089;49.852;19.700;2022-12-16T16:37:26;124.40;;;42.40;;
21848;SDS011;11089;49.852;19.700;2022-12-16T16:40:41;125.43;;;43.92;;
21848;SDS011;11089;49.852;19.700;2022-12-16T16:43:57;115.13;;;39.78;;
21848;SDS011;11089;49.852;19.700;2022-12-16T16:47:14;103.13;;;38.08;;
21848;SDS011;11089;49.852;19.700;2022-12-16T16:50:30;105.97;;;38.20;;
21848;SDS011;11089;49.852;19.700;2022-12-16T16:53:45;113.57;;;41.88;;
21848;SDS011;11089;49.852;19.700;2022-12-16T16:57:00;117.43;;;39.83;;
21848;SDS011;11089;49.852;19.700;2022-12-16T17:00:15;117.03;;;41.65;;
21848;SDS011;11089;49.852;19.700;2022-12-16T17:03:30;122.03;;;44.72;;
21848;SDS011;11089;49.852;19.700;2022-12-16T17:06:45;127.75;;;43.00;;
21848;SDS011;11089;49.852;19.700;2022-12-16T17:10:00;145.75;;;46.25;;
21848;SDS011;11089;49.852;19.700;2022-12-16T17:13:13;126.38;;;44.53;;
21848;SDS011;11089;49.852;19.700;2022-12-16T17:16:28;136.25;;;45.22;;
21848;SDS011;11089;49.852;19.700;2022-12-16T17:19:43;125.63;;;44.20;;
21848;SDS011;11089;49.852;19.700;2022-12-16T17:22:58;133.88;;;45.42;;
21848;SDS011;11089;49.852;19.700;2022-12-16T17:26:13;126.95;;;43.13;;
21848;SDS011;11089;49.852;19.700;2022-12-16T17:29:28;134.02;;;46.28;;
21848;SDS011;11089;49.852;19.700;2022-12-16T17:32:43;143.30;;;45.58;;
21848;SDS011;11089;49.852;19.700;2022-12-16T17:35:57;139.65;;;45.25;;
21848;SDS011;11089;49.852;19.700;2022-12-16T17:39:12;146.13;;;47.28;;
21848;SDS011;11089;49.852;19.700;2022-12-16T17:42:27;131.23;;;45.53;;
21848;SDS011;11089;49.852;19.700;2022-12-16T17:45:42;140.13;;;44.92;;
21848;SDS011;11089;49.852;19.700;2022-12-16T17:48:57;158.15;;;53.65;;
21848;SDS011;11089;49.852;19.700;2022-12-16T17:52:12;192.23;;;57.92;;
21848;SDS011;11089;49.852;19.700;2022-12-16T17:55:27;155.27;;;51.78;;
21848;SDS011;11089;49.852;19.700;2022-12-16T17:58:42;147.13;;;47.90;;
21848;SDS011;11089;49.852;19.700;2022-12-16T18:01:57;153.18;;;48.47;;
21848;SDS011;11089;49.852;19.700;2022-12-16T18:05:12;155.40;;;49.63;;
21848;SDS011;11089;49.852;19.700;2022-12-16T18:08:25;145.68;;;44.75;;
21848;SDS011;11089;49.852;19.700;2022-12-16T18:11:39;147.75;;;46.30;;
21848;SDS011;11089;49.852;19.700;2022-12-16T18:14:54;150.93;;;48.75;;
21848;SDS011;11089;49.852;19.700;2022-12-16T18:18:09;148.18;;;48.45;;
21848;SDS011;11089;49.852;19.700;2022-12-16T18:21:24;164.10;;;50.00;;
21848;SDS011;11089;49.852;19.700;2022-12-16T18:24:37;231.95;;;61.35;;
21848;SDS011;11089;49.852;19.700;2022-12-16T18:27:51;214.15;;;60.63;;
21848;SDS011;11089;49.852;19.700;2022-12-16T18:31:06;193.18;;;58.83;;
21848;SDS011;11089;49.852;19.700;2022-12-16T18:34:21;178.48;;;56.30;;
21848;SDS011;11089;49.852;19.700;2022-12-16T18:37:36;160.55;;;48.50;;
21848;SDS011;11089;49.852;19.700;2022-12-16T18:40:50;279.45;;;74.72;;
21848;SDS011;11089;49.852;19.700;2022-12-16T18:44:15;191.50;;;55.20;;
21848;SDS011;11089;49.852;19.700;2022-12-16T18:47:30;158.18;;;51.70;;
21848;SDS011;11089;49.852;19.700;2022-12-16T18:50:43;161.80;;;51.83;;
21848;SDS011;11089;49.852;19.700;2022-12-16T18:54:06;174.45;;;53.47;;
21848;SDS011;11089;49.852;19.700;2022-12-16T18:57:21;158.52;;;48.85;;
21848;SDS011;11089;49.852;19.700;2022-12-16T19:00:36;164.60;;;49.42;;
21848;SDS011;11089;49.852;19.700;2022-12-16T19:03:51;153.98;;;46.90;;
21848;SDS011;11089;49.852;19.700;2022-12-16T19:07:06;165.90;;;48.72;;
21848;SDS011;11089;49.852;19.700;2022-12-16T19:10:21;151.13;;;47.28;;
21848;SDS011;11089;49.852;19.700;2022-12-16T19:13:36;154.68;;;47.55;;
21848;SDS011;11089;49.852;19.700;2022-12-16T19:16:50;157.98;;;48.08;;
21848;SDS011;11089;49.852;19.700;2022-12-16T19:20:05;161.98;;;47.20;;
21848;SDS011;11089;49.852;19.700;2022-12-16T19:23:21;143.20;;;45.80;;
21848;SDS011;11089;49.852;19.700;2022-12-16T19:26:36;154.13;;;48.95;;
21848;SDS011;11089;49.852;19.700;2022-12-16T19:29:51;147.45;;;47.72;;
21848;SDS011;11089;49.852;19.700;2022-12-16T19:33:06;155.70;;;49.17;;
21848;SDS011;11089;49.852;19.700;2022-12-16T19:36:19;188.82;;;53.95;;
21848;SDS011;11089;49.852;19.700;2022-12-16T19:39:34;165.32;;;49.63;;
21848;SDS011;11089;49.852;19.700;2022-12-16T19:42:49;155.77;;;48.65;;
21848;SDS011;11089;49.852;19.700;2022-12-16T19:46:04;157.63;;;49.40;;
21848;SDS011;11089;49.852;19.700;2022-12-16T19:49:19;161.23;;;47.80;;
21848;SDS011;11089;49.852;19.700;2022-12-16T19:52:34;203.05;;;59.40;;
21848;SDS011;11089;49.852;19.700;2022-12-16T19:55:55;175.65;;;53.45;;
21848;SDS011;11089;49.852;19.700;2022-12-16T19:59:10;173.13;;;50.75;;
21848;SDS011;11089;49.852;19.700;2022-12-16T20:02:25;154.25;;;48.70;;
21848;SDS011;11089;49.852;19.700;2022-12-16T20:05:40;148.32;;;45.65;;
21848;SDS011;11089;49.852;19.700;2022-12-16T20:08:55;155.13;;;47.28;;